KPIB/PIB METAR and TAF weather

Enter ICAO airport designator
Station Type Date Time Source
KPIB METAR 2019/06/26 15:56 UTC NOAA

KPIB 261556Z AUTO 00000KT 10SM CLR 26/22 A3022 RMK AO2 SLP229 T02610222


Station Type Date Time Source
KPIB Decoded METAR 2019/06/26 15:56 UTC NOAA

Hattiesburg/Laurel, Hattiesburg-Laurel Regional Airport, MS, United States (KPIB) 31-28N 089-20W
Jun 26, 2019 - 11:56 AM EDT / 2019.06.26 1556 UTC
Wind: Calm:0
Visibility: 10 mile(s):0
Sky conditions: clear
Temperature: 79.0 F (26.1 C)
Dew Point: 72.0 F (22.2 C)
Relative Humidity: 79%
Pressure (altimeter): 30.22 in. Hg (1023 hPa)
ob: KPIB 261556Z AUTO 00000KT 10SM CLR 26/22 A3022 RMK AO2 SLP229 T02610222
cycle: 16

Station Type Date Time Source
KPIB TAF 2019/06/26 12:24 UTC NOAA

TAF KPIB 261122Z 2612/2712 07005KT P6SM SCT040 BKN200

Example: see airport list